Portada
METAR-TAF:

METAR-TAF

Aeroports :

Karachi, Pakistan

latitud: 24-54N, longitud: 067-08E, altitud: 21 m

Observació

L'informe es va fer fa 22 minuts, a les 06:00 UTC
Vent calma
Temperatura 33°C
Humitat 23%
Pressió 1014 hPa
Visibilitat: 5000 m
calitja

METAR: OPKC 140600Z 00000KT 5000 HZ NSC 33/09 Q1014 NOSIG

Hora: 11:22 (06:22 UTC)

Pronòstic

L'informe es va fer fa 2 hores i 22 minuts, a les 04:00 UTC
Pronòstic vàlid del 14 a les 06 UTC al 15 a les 12 UTC
Vent 5 kt del Oest amb ràfegues de 15 kt
Visibilitat: 7000 m
Escasses núvols a una alçada de 3000 ft
A partir de les 14 a les 1800 UTC
Vent 10 kt del Oest
Visibilitat: 5000 m
Escasses núvols a una alçada de 4000 ft
fum
A partir de les 15 a les 0500 UTC
Vent 5 kt del Oest/Sud-Oest amb ràfegues de 15 kt
Visibilitat: 7000 m
Escasses núvols a una alçada de 3000 ft

TAF: OPKC 140400Z 1406/1512 27005G15KT 7000 FEW030 FM141800 27010KT 5000 FU FEW040 FM150500 24005G15KT 7000 FEW030

Observacions i pronòstics meteorològics de més de 4000 aeroports (METAR i TAF).

Les estacions disponibles són els punts grocs i vermells al mapa.

Posi el ratolí al punt desitjat per veure el nom de l'estació.

Feu clic per veure les observacions i els pronòstics meteorològics.

Per canviar el mapa: feu clic els botons verds amb una creu de color negre per apropar; al botó verd amb un guió per allunyar la imatge; o en les fletxes verdes per a mapes adjacents.


METAR-TAF: